메인 페이지
METAR-TAF:

METAR-TAF

공항 :

티니안 국제공항

티니안 섬, 마리아나 제도, 미국

위도: 14-59N, 경도: 145-37E, 고도: 82m

현재 날씨관측

예보는 11 시간 46분 전, 08:50시(UTC)에 발표되었습니다.
14kt
온도 29°C
습도 74%
기압 1010 hPa
시정: 11.3km
고도 2500ft 상공 구름 조금
고도 6500ft 상공 구름 조금

METAR: PGWT 180850Z 09014KT 7SM FEW025 FEW065 29/24 A2982 RMK LAST

시각: 06:36 (20:36 UTC)

예보

예보는 15 시간 16분 전, 05:20시(UTC)에 발표되었습니다.
예보 대상 시간: 18일 06시부터 19일 06시까지 (UTC)
15kt, 순간 최대 풍속 20kt
시정: 10km
고도 1600ft 상공 구름 보통
고도 3000ft 상공 구름 보통

TAF: PGWT 180520Z 1806/1906 09015G20KT P6SM SCT016 SCT030

4,000개 이상의 공항 관측 자료 및 예보 (METAR 및 TAF 보고).

지도상에서 검색 가능한 기상관측소가 노란 점과 빨간 점으로 표시되어 있습니다.

기상관측소 명을 보려면 표시 위로 마우스를 이동하세요.

날씨 관측과 예보를 보려면 클릭하세요.

지도 변경 : 확대하려면 엑스 표시가 있는 녹색 버튼, 축소하려면 빼기 표시가 있는 녹색 버튼, 다음 페이지의 지도를 보려면 녹색 화살표를 클릭하세요.


METAR-TAF: